sensor_id;sensor_type;location;lat;lon;timestamp;P1;durP1;ratioP1;P2;durP2;ratioP2
63965;SDS011;50151;52.030;5.350;2023-03-31T07:37:33;4.88;;;0.90;;
63965;SDS011;50151;52.030;5.350;2023-03-31T07:40:02;4.38;;;0.90;;
63965;SDS011;50151;52.030;5.350;2023-03-31T07:42:31;3.00;;;0.73;;
63965;SDS011;50151;52.030;5.350;2023-03-31T07:44:58;4.63;;;1.08;;
63965;SDS011;50151;52.030;5.350;2023-03-31T07:47:25;3.42;;;1.25;;
63965;SDS011;50151;52.030;5.350;2023-03-31T07:49:53;3.90;;;1.00;;
63965;SDS011;50151;52.030;5.350;2023-03-31T07:52:19;3.88;;;1.02;;
63965;SDS011;50151;52.030;5.350;2023-03-31T07:54:46;4.65;;;1.38;;
63965;SDS011;50151;52.030;5.350;2023-03-31T07:57:13;3.10;;;0.80;;
63965;SDS011;50151;52.030;5.350;2023-03-31T07:59:42;3.13;;;0.90;;
63965;SDS011;50151;52.030;5.350;2023-03-31T08:02:10;4.75;;;1.35;;
63965;SDS011;50151;52.030;5.350;2023-03-31T08:04:39;12.40;;;1.30;;
63965;SDS011;50151;52.030;5.350;2023-03-31T08:07:09;4.20;;;1.17;;
63965;SDS011;50151;52.030;5.350;2023-03-31T08:09:38;4.78;;;1.20;;
63965;SDS011;50151;52.030;5.350;2023-03-31T08:12:06;6.63;;;1.02;;
63965;SDS011;50151;52.030;5.350;2023-03-31T08:14:32;5.72;;;1.33;;
63965;SDS011;50151;52.030;5.350;2023-03-31T08:17:07;5.07;;;1.25;;
63965;SDS011;50151;52.030;5.350;2023-03-31T08:19:34;4.32;;;1.20;;
63965;SDS011;50151;52.030;5.350;2023-03-31T08:22:02;6.03;;;1.52;;
63965;SDS011;50151;52.030;5.350;2023-03-31T08:24:29;11.57;;;1.95;;
63965;SDS011;50151;52.030;5.350;2023-03-31T08:26:55;5.63;;;1.27;;
63965;SDS011;50151;52.030;5.350;2023-03-31T08:29:22;4.22;;;1.38;;
63965;SDS011;50151;52.030;5.350;2023-03-31T08:31:49;7.90;;;1.40;;
63965;SDS011;50151;52.030;5.350;2023-03-31T08:34:16;10.07;;;1.98;;
63965;SDS011;50151;52.030;5.350;2023-03-31T08:36:43;7.40;;;1.83;;
63965;SDS011;50151;52.030;5.350;2023-03-31T08:39:09;6.30;;;1.90;;
63965;SDS011;50151;52.030;5.350;2023-03-31T08:41:40;12.18;;;2.05;;
63965;SDS011;50151;52.030;5.350;2023-03-31T08:44:30;9.93;;;2.33;;
63965;SDS011;50151;52.030;5.350;2023-03-31T08:47:01;12.55;;;2.00;;
63965;SDS011;50151;52.030;5.350;2023-03-31T08:49:32;9.63;;;2.40;;
63965;SDS011;50151;52.030;5.350;2023-03-31T08:52:13;10.18;;;2.05;;
63965;SDS011;50151;52.030;5.350;2023-03-31T08:54:43;9.43;;;2.13;;
63965;SDS011;50151;52.030;5.350;2023-03-31T08:57:16;11.02;;;2.20;;
63965;SDS011;50151;52.030;5.350;2023-03-31T08:59:53;12.40;;;2.10;;
63965;SDS011;50151;52.030;5.350;2023-03-31T09:08:31;12.93;;;2.63;;
63965;SDS011;50151;52.030;5.350;2023-03-31T09:11:04;10.32;;;2.38;;
63965;SDS011;50151;52.030;5.350;2023-03-31T09:16:19;15.18;;;3.22;;
63965;SDS011;50151;52.030;5.350;2023-03-31T09:18:54;19.70;;;2.88;;
63965;SDS011;50151;52.030;5.350;2023-03-31T09:21:45;13.88;;;2.83;;
63965;SDS011;50151;52.030;5.350;2023-03-31T09:24:22;14.18;;;2.38;;
63965;SDS011;50151;52.030;5.350;2023-03-31T09:26:59;18.20;;;3.08;;
63965;SDS011;50151;52.030;5.350;2023-03-31T09:29:43;10.73;;;2.38;;
63965;SDS011;50151;52.030;5.350;2023-03-31T09:32:22;7.10;;;1.83;;
63965;SDS011;50151;52.030;5.350;2023-03-31T09:34:52;15.55;;;2.90;;
63965;SDS011;50151;52.030;5.350;2023-03-31T09:37:24;13.95;;;2.55;;
63965;SDS011;50151;52.030;5.350;2023-03-31T09:39:56;16.48;;;2.97;;
63965;SDS011;50151;52.030;5.350;2023-03-31T09:42:33;14.10;;;2.80;;
63965;SDS011;50151;52.030;5.350;2023-03-31T09:45:01;23.50;;;2.83;;
63965;SDS011;50151;52.030;5.350;2023-03-31T09:47:32;15.32;;;2.92;;
63965;SDS011;50151;52.030;5.350;2023-03-31T09:50:05;12.45;;;2.70;;
63965;SDS011;50151;52.030;5.350;2023-03-31T09:52:36;20.25;;;2.80;;
63965;SDS011;50151;52.030;5.350;2023-03-31T09:58:05;10.63;;;2.47;;
63965;SDS011;50151;52.030;5.350;2023-03-31T10:00:33;14.98;;;2.63;;
63965;SDS011;50151;52.030;5.350;2023-03-31T10:03:01;12.50;;;2.50;;
63965;SDS011;50151;52.030;5.350;2023-03-31T10:05:34;14.15;;;2.50;;
63965;SDS011;50151;52.030;5.350;2023-03-31T10:08:19;15.52;;;2.40;;
63965;SDS011;50151;52.030;5.350;2023-03-31T10:11:14;10.60;;;2.28;;
63965;SDS011;50151;52.030;5.350;2023-03-31T10:16:32;10.05;;;2.53;;
63965;SDS011;50151;52.030;5.350;2023-03-31T10:19:13;9.90;;;2.20;;
63965;SDS011;50151;52.030;5.350;2023-03-31T10:21:47;11.18;;;2.50;;
63965;SDS011;50151;52.030;5.350;2023-03-31T10:24:21;11.77;;;2.10;;
63965;SDS011;50151;52.030;5.350;2023-03-31T10:26:51;6.38;;;1.60;;
63965;SDS011;50151;52.030;5.350;2023-03-31T10:29:25;14.65;;;2.58;;
63965;SDS011;50151;52.030;5.350;2023-03-31T10:32:31;5.30;;;1.38;;
63965;SDS011;50151;52.030;5.350;2023-03-31T10:34:50;12.27;;;2.25;;
63965;SDS011;50151;52.030;5.350;2023-03-31T10:37:18;13.93;;;2.20;;
63965;SDS011;50151;52.030;5.350;2023-03-31T10:45:47;11.75;;;2.13;;
63965;SDS011;50151;52.030;5.350;2023-03-31T10:48:26;12.88;;;1.90;;
63965;SDS011;50151;52.030;5.350;2023-03-31T10:50:59;11.30;;;2.10;;
63965;SDS011;50151;52.030;5.350;2023-03-31T10:53:45;7.88;;;1.90;;
63965;SDS011;50151;52.030;5.350;2023-03-31T10:58:58;11.35;;;2.55;;
63965;SDS011;50151;52.030;5.350;2023-03-31T11:15:39;9.67;;;1.77;;
63965;SDS011;50151;52.030;5.350;2023-03-31T11:18:32;11.32;;;2.30;;
63965;SDS011;50151;52.030;5.350;2023-03-31T11:27:07;13.60;;;2.10;;
63965;SDS011;50151;52.030;5.350;2023-03-31T11:32:35;6.45;;;1.38;;
63965;SDS011;50151;52.030;5.350;2023-03-31T11:38:35;10.38;;;2.30;;
63965;SDS011;50151;52.030;5.350;2023-03-31T11:41:26;13.13;;;2.53;;
63965;SDS011;50151;52.030;5.350;2023-03-31T11:43:58;14.45;;;2.55;;
63965;SDS011;50151;52.030;5.350;2023-03-31T11:46:47;12.38;;;2.40;;
63965;SDS011;50151;52.030;5.350;2023-03-31T11:49:23;10.60;;;1.92;;
63965;SDS011;50151;52.030;5.350;2023-03-31T11:52:21;11.18;;;2.15;;
63965;SDS011;50151;52.030;5.350;2023-03-31T11:55:02;9.43;;;2.10;;
63965;SDS011;50151;52.030;5.350;2023-03-31T11:57:52;15.23;;;2.00;;
63965;SDS011;50151;52.030;5.350;2023-03-31T12:00:36;12.75;;;3.45;;
63965;SDS011;50151;52.030;5.350;2023-03-31T12:03:14;8.15;;;1.65;;
63965;SDS011;50151;52.030;5.350;2023-03-31T12:05:47;10.95;;;2.10;;
63965;SDS011;50151;52.030;5.350;2023-03-31T12:08:29;9.15;;;1.83;;
63965;SDS011;50151;52.030;5.350;2023-03-31T12:11:33;6.45;;;1.33;;
63965;SDS011;50151;52.030;5.350;2023-03-31T12:14:54;13.07;;;1.88;;
63965;SDS011;50151;52.030;5.350;2023-03-31T12:17:10;14.75;;;2.30;;
63965;SDS011;50151;52.030;5.350;2023-03-31T12:19:46;14.25;;;2.65;;
63965;SDS011;50151;52.030;5.350;2023-03-31T12:22:56;12.52;;;2.75;;
63965;SDS011;50151;52.030;5.350;2023-03-31T12:25:17;9.88;;;2.35;;
63965;SDS011;50151;52.030;5.350;2023-03-31T12:27:48;13.63;;;2.05;;
63965;SDS011;50151;52.030;5.350;2023-03-31T12:30:21;10.45;;;2.50;;
63965;SDS011;50151;52.030;5.350;2023-03-31T12:32:58;5.38;;;1.85;;
63965;SDS011;50151;52.030;5.350;2023-03-31T12:35:47;7.68;;;1.88;;
63965;SDS011;50151;52.030;5.350;2023-03-31T12:38:28;13.77;;;2.25;;
63965;SDS011;50151;52.030;5.350;2023-03-31T12:49:32;16.55;;;2.67;;
63965;SDS011;50151;52.030;5.350;2023-03-31T12:52:04;14.90;;;2.35;;
63965;SDS011;50151;52.030;5.350;2023-03-31T12:57:24;9.45;;;2.25;;
63965;SDS011;50151;52.030;5.350;2023-03-31T13:02:38;13.30;;;2.45;;
63965;SDS011;50151;52.030;5.350;2023-03-31T13:08:04;7.72;;;2.00;;
63965;SDS011;50151;52.030;5.350;2023-03-31T13:10:33;11.50;;;2.10;;
63965;SDS011;50151;52.030;5.350;2023-03-31T13:13:22;9.85;;;2.10;;
63965;SDS011;50151;52.030;5.350;2023-03-31T13:15:53;10.30;;;2.13;;
63965;SDS011;50151;52.030;5.350;2023-03-31T13:18:22;10.68;;;2.05;;
63965;SDS011;50151;52.030;5.350;2023-03-31T13:20:59;9.68;;;2.15;;
63965;SDS011;50151;52.030;5.350;2023-03-31T13:23:32;10.93;;;2.20;;
63965;SDS011;50151;52.030;5.350;2023-03-31T13:26:00;4.75;;;1.35;;
63965;SDS011;50151;52.030;5.350;2023-03-31T13:28:37;10.65;;;1.98;;
63965;SDS011;50151;52.030;5.350;2023-03-31T13:31:06;9.38;;;1.75;;
63965;SDS011;50151;52.030;5.350;2023-03-31T13:33:35;13.55;;;1.95;;
63965;SDS011;50151;52.030;5.350;2023-03-31T13:41:12;12.55;;;1.98;;
63965;SDS011;50151;52.030;5.350;2023-03-31T13:44:14;12.90;;;2.30;;
63965;SDS011;50151;52.030;5.350;2023-03-31T13:52:37;7.68;;;1.70;;
63965;SDS011;50151;52.030;5.350;2023-03-31T13:55:35;8.18;;;1.63;;
63965;SDS011;50151;52.030;5.350;2023-03-31T14:06:46;3.83;;;1.25;;
63965;SDS011;50151;52.030;5.350;2023-03-31T14:09:31;5.80;;;2.38;;
63965;SDS011;50151;52.030;5.350;2023-03-31T14:12:00;5.32;;;1.63;;
63965;SDS011;50151;52.030;5.350;2023-03-31T14:14:43;3.97;;;0.93;;
63965;SDS011;50151;52.030;5.350;2023-03-31T14:17:10;6.45;;;1.40;;
63965;SDS011;50151;52.030;5.350;2023-03-31T14:22:09;6.32;;;1.95;;
63965;SDS011;50151;52.030;5.350;2023-03-31T14:24:49;6.22;;;1.70;;
63965;SDS011;50151;52.030;5.350;2023-03-31T14:38:38;6.30;;;1.35;;
63965;SDS011;50151;52.030;5.350;2023-03-31T14:41:05;6.18;;;1.30;;
63965;SDS011;50151;52.030;5.350;2023-03-31T14:43:33;5.38;;;1.40;;
63965;SDS011;50151;52.030;5.350;2023-03-31T14:46:05;3.60;;;0.70;;
63965;SDS011;50151;52.030;5.350;2023-03-31T14:48:34;8.98;;;1.67;;
63965;SDS011;50151;52.030;5.350;2023-03-31T14:51:10;4.03;;;1.10;;
63965;SDS011;50151;52.030;5.350;2023-03-31T14:53:38;5.00;;;1.40;;
63965;SDS011;50151;52.030;5.350;2023-03-31T14:56:06;6.60;;;1.20;;
63965;SDS011;50151;52.030;5.350;2023-03-31T14:58:38;5.30;;;1.40;;
63965;SDS011;50151;52.030;5.350;2023-03-31T15:01:07;5.50;;;2.00;;
63965;SDS011;50151;52.030;5.350;2023-03-31T15:03:41;4.43;;;0.95;;
63965;SDS011;50151;52.030;5.350;2023-03-31T15:06:09;3.20;;;0.90;;
63965;SDS011;50151;52.030;5.350;2023-03-31T15:08:36;4.53;;;0.93;;
63965;SDS011;50151;52.030;5.350;2023-03-31T15:11:04;5.30;;;1.00;;
63965;SDS011;50151;52.030;5.350;2023-03-31T15:13:40;3.72;;;1.00;;
63965;SDS011;50151;52.030;5.350;2023-03-31T15:16:34;8.95;;;1.40;;
63965;SDS011;50151;52.030;5.350;2023-03-31T15:19:42;5.75;;;1.27;;
63965;SDS011;50151;52.030;5.350;2023-03-31T15:22:04;3.40;;;1.20;;
63965;SDS011;50151;52.030;5.350;2023-03-31T15:24:41;4.82;;;1.15;;
63965;SDS011;50151;52.030;5.350;2023-03-31T15:27:09;8.57;;;1.50;;
63965;SDS011;50151;52.030;5.350;2023-03-31T15:30:18;2.03;;;0.70;;
63965;SDS011;50151;52.030;5.350;2023-03-31T15:32:48;3.10;;;0.90;;
63965;SDS011;50151;52.030;5.350;2023-03-31T15:35:20;4.35;;;1.17;;
63965;SDS011;50151;52.030;5.350;2023-03-31T15:37:51;4.53;;;1.20;;
63965;SDS011;50151;52.030;5.350;2023-03-31T15:42:52;3.60;;;1.23;;
63965;SDS011;50151;52.030;5.350;2023-03-31T15:45:46;2.13;;;1.23;;
63965;SDS011;50151;52.030;5.350;2023-03-31T15:48:17;4.70;;;1.23;;
63965;SDS011;50151;52.030;5.350;2023-03-31T15:51:00;6.70;;;1.80;;
63965;SDS011;50151;52.030;5.350;2023-03-31T15:53:34;8.90;;;2.03;;
63965;SDS011;50151;52.030;5.350;2023-03-31T15:56:03;14.30;;;2.80;;
63965;SDS011;50151;52.030;5.350;2023-03-31T16:01:27;8.73;;;3.00;;
63965;SDS011;50151;52.030;5.350;2023-03-31T16:04:01;3.67;;;1.17;;
63965;SDS011;50151;52.030;5.350;2023-03-31T16:06:38;10.90;;;2.92;;
63965;SDS011;50151;52.030;5.350;2023-03-31T16:09:14;7.70;;;1.55;;
63965;SDS011;50151;52.030;5.350;2023-03-31T16:11:46;4.40;;;1.48;;
63965;SDS011;50151;52.030;5.350;2023-03-31T16:14:19;13.25;;;2.72;;
63965;SDS011;50151;52.030;5.350;2023-03-31T16:16:48;7.50;;;2.28;;
63965;SDS011;50151;52.030;5.350;2023-03-31T16:19:20;4.82;;;1.30;;
63965;SDS011;50151;52.030;5.350;2023-03-31T16:21:48;2.67;;;1.25;;
63965;SDS011;50151;52.030;5.350;2023-03-31T16:24:19;2.72;;;1.00;;
63965;SDS011;50151;52.030;5.350;2023-03-31T16:26:57;3.35;;;0.98;;
63965;SDS011;50151;52.030;5.350;2023-03-31T16:29:26;2.53;;;1.00;;
63965;SDS011;50151;52.030;5.350;2023-03-31T16:32:05;3.85;;;1.23;;
63965;SDS011;50151;52.030;5.350;2023-03-31T16:34:33;1.52;;;0.80;;
63965;SDS011;50151;52.030;5.350;2023-03-31T16:37:00;3.22;;;1.27;;
63965;SDS011;50151;52.030;5.350;2023-03-31T16:39:34;3.80;;;1.95;;
63965;SDS011;50151;52.030;5.350;2023-03-31T16:42:01;16.90;;;7.93;;
63965;SDS011;50151;52.030;5.350;2023-03-31T16:44:28;10.18;;;4.55;;
63965;SDS011;50151;52.030;5.350;2023-03-31T16:46:55;14.27;;;7.28;;
63965;SDS011;50151;52.030;5.350;2023-03-31T16:49:22;31.05;;;13.02;;
63965;SDS011;50151;52.030;5.350;2023-03-31T16:51:48;6.53;;;4.05;;
63965;SDS011;50151;52.030;5.350;2023-03-31T16:54:15;5.90;;;3.00;;
63965;SDS011;50151;52.030;5.350;2023-03-31T16:56:42;5.35;;;3.50;;
63965;SDS011;50151;52.030;5.350;2023-03-31T16:59:09;4.72;;;2.50;;
63965;SDS011;50151;52.030;5.350;2023-03-31T17:01:35;2.45;;;1.40;;
63965;SDS011;50151;52.030;5.350;2023-03-31T17:04:02;4.28;;;1.23;;
63965;SDS011;50151;52.030;5.350;2023-03-31T17:06:29;2.80;;;1.45;;
63965;SDS011;50151;52.030;5.350;2023-03-31T17:08:56;1.45;;;1.00;;
63965;SDS011;50151;52.030;5.350;2023-03-31T17:11:23;2.67;;;0.90;;
63965;SDS011;50151;52.030;5.350;2023-03-31T17:13:51;2.63;;;1.45;;
63965;SDS011;50151;52.030;5.350;2023-03-31T17:16:19;5.43;;;1.50;;
63965;SDS011;50151;52.030;5.350;2023-03-31T17:19:05;5.65;;;1.38;;
63965;SDS011;50151;52.030;5.350;2023-03-31T17:21:32;1.52;;;1.13;;
63965;SDS011;50151;52.030;5.350;2023-03-31T17:23:58;4.43;;;1.25;;
63965;SDS011;50151;52.030;5.350;2023-03-31T17:26:28;1.92;;;1.10;;
63965;SDS011;50151;52.030;5.350;2023-03-31T17:28:54;3.17;;;1.23;;
63965;SDS011;50151;52.030;5.350;2023-03-31T17:31:21;2.95;;;1.20;;
63965;SDS011;50151;52.030;5.350;2023-03-31T17:33:49;3.92;;;1.15;;
63965;SDS011;50151;52.030;5.350;2023-03-31T17:36:16;2.67;;;0.80;;
63965;SDS011;50151;52.030;5.350;2023-03-31T17:38:43;3.20;;;1.10;;
63965;SDS011;50151;52.030;5.350;2023-03-31T17:41:11;2.88;;;1.38;;
63965;SDS011;50151;52.030;5.350;2023-03-31T17:43:38;1.67;;;0.90;;
63965;SDS011;50151;52.030;5.350;2023-03-31T17:46:09;2.53;;;1.08;;
63965;SDS011;50151;52.030;5.350;2023-03-31T17:48:38;4.55;;;1.30;;
63965;SDS011;50151;52.030;5.350;2023-03-31T17:51:05;2.00;;;1.08;;
63965;SDS011;50151;52.030;5.350;2023-03-31T17:53:33;3.35;;;1.42;;
63965;SDS011;50151;52.030;5.350;2023-03-31T17:56:01;4.47;;;1.20;;
63965;SDS011;50151;52.030;5.350;2023-03-31T17:58:29;1.75;;;0.95;;
63965;SDS011;50151;52.030;5.350;2023-03-31T18:00:58;2.35;;;1.17;;
63965;SDS011;50151;52.030;5.350;2023-03-31T18:03:28;2.25;;;1.20;;
63965;SDS011;50151;52.030;5.350;2023-03-31T18:05:55;2.80;;;1.30;;
63965;SDS011;50151;52.030;5.350;2023-03-31T18:08:22;3.10;;;1.27;;
63965;SDS011;50151;52.030;5.350;2023-03-31T18:10:49;2.83;;;1.17;;
63965;SDS011;50151;52.030;5.350;2023-03-31T18:13:15;5.03;;;1.40;;
63965;SDS011;50151;52.030;5.350;2023-03-31T18:15:46;2.17;;;0.90;;
63965;SDS011;50151;52.030;5.350;2023-03-31T18:18:16;8.43;;;2.13;;
63965;SDS011;50151;52.030;5.350;2023-03-31T18:20:44;4.38;;;1.52;;
63965;SDS011;50151;52.030;5.350;2023-03-31T18:23:11;3.60;;;1.42;;
63965;SDS011;50151;52.030;5.350;2023-03-31T18:25:37;5.40;;;2.03;;
63965;SDS011;50151;52.030;5.350;2023-03-31T18:28:09;2.83;;;1.40;;
63965;SDS011;50151;52.030;5.350;2023-03-31T18:30:36;3.00;;;1.70;;
63965;SDS011;50151;52.030;5.350;2023-03-31T18:33:03;5.00;;;1.80;;
63965;SDS011;50151;52.030;5.350;2023-03-31T18:35:30;2.70;;;1.50;;
63965;SDS011;50151;52.030;5.350;2023-03-31T18:37:57;4.13;;;1.70;;
63965;SDS011;50151;52.030;5.350;2023-03-31T18:40:23;6.63;;;1.92;;
63965;SDS011;50151;52.030;5.350;2023-03-31T18:42:50;7.25;;;2.20;;
63965;SDS011;50151;52.030;5.350;2023-03-31T18:45:17;6.53;;;1.80;;
63965;SDS011;50151;52.030;5.350;2023-03-31T18:47:44;5.72;;;1.90;;
63965;SDS011;50151;52.030;5.350;2023-03-31T18:50:11;3.80;;;1.90;;
63965;SDS011;50151;52.030;5.350;2023-03-31T18:52:39;6.40;;;2.00;;
63965;SDS011;50151;52.030;5.350;2023-03-31T18:55:06;2.35;;;1.42;;
63965;SDS011;50151;52.030;5.350;2023-03-31T18:57:33;3.67;;;1.52;;
63965;SDS011;50151;52.030;5.350;2023-03-31T19:00:00;5.72;;;1.88;;
63965;SDS011;50151;52.030;5.350;2023-03-31T19:02:26;7.13;;;1.77;;
63965;SDS011;50151;52.030;5.350;2023-03-31T19:04:53;4.60;;;2.13;;
63965;SDS011;50151;52.030;5.350;2023-03-31T19:07:20;6.55;;;2.10;;
63965;SDS011;50151;52.030;5.350;2023-03-31T19:09:46;2.75;;;1.90;;
63965;SDS011;50151;52.030;5.350;2023-03-31T19:12:14;6.25;;;1.92;;
63965;SDS011;50151;52.030;5.350;2023-03-31T19:14:41;8.77;;;2.22;;
63965;SDS011;50151;52.030;5.350;2023-03-31T19:17:09;12.05;;;2.30;;
63965;SDS011;50151;52.030;5.350;2023-03-31T19:19:36;8.75;;;2.42;;
63965;SDS011;50151;52.030;5.350;2023-03-31T19:22:03;8.07;;;2.30;;
63965;SDS011;50151;52.030;5.350;2023-03-31T19:24:30;6.05;;;2.10;;
63965;SDS011;50151;52.030;5.350;2023-03-31T19:26:56;6.97;;;2.47;;
63965;SDS011;50151;52.030;5.350;2023-03-31T19:29:23;5.82;;;2.35;;
63965;SDS011;50151;52.030;5.350;2023-03-31T19:31:50;8.15;;;2.83;;
63965;SDS011;50151;52.030;5.350;2023-03-31T19:34:17;4.13;;;2.00;;
63965;SDS011;50151;52.030;5.350;2023-03-31T19:36:44;6.95;;;2.10;;
63965;SDS011;50151;52.030;5.350;2023-03-31T19:39:10;9.00;;;2.30;;
63965;SDS011;50151;52.030;5.350;2023-03-31T19:41:37;5.28;;;2.10;;
63965;SDS011;50151;52.030;5.350;2023-03-31T19:44:04;5.88;;;2.20;;
63965;SDS011;50151;52.030;5.350;2023-03-31T19:46:30;8.55;;;2.35;;
63965;SDS011;50151;52.030;5.350;2023-03-31T19:48:57;5.32;;;1.88;;
63965;SDS011;50151;52.030;5.350;2023-03-31T19:51:24;8.18;;;2.47;;
63965;SDS011;50151;52.030;5.350;2023-03-31T19:53:51;6.93;;;2.40;;
63965;SDS011;50151;52.030;5.350;2023-03-31T19:56:18;4.22;;;2.10;;
63965;SDS011;50151;52.030;5.350;2023-03-31T19:58:46;4.55;;;2.13;;
63965;SDS011;50151;52.030;5.350;2023-03-31T20:01:16;7.20;;;2.50;;
63965;SDS011;50151;52.030;5.350;2023-03-31T20:03:48;4.20;;;2.08;;
63965;SDS011;50151;52.030;5.350;2023-03-31T20:06:20;6.68;;;2.72;;
63965;SDS011;50151;52.030;5.350;2023-03-31T20:08:51;5.28;;;2.85;;
63965;SDS011;50151;52.030;5.350;2023-03-31T20:11:19;6.57;;;3.08;;
63965;SDS011;50151;52.030;5.350;2023-03-31T20:13:46;7.10;;;2.80;;
63965;SDS011;50151;52.030;5.350;2023-03-31T20:16:14;5.38;;;2.55;;
63965;SDS011;50151;52.030;5.350;2023-03-31T20:18:44;11.15;;;2.97;;
63965;SDS011;50151;52.030;5.350;2023-03-31T20:21:17;6.85;;;2.97;;
63965;SDS011;50151;52.030;5.350;2023-03-31T20:23:44;6.40;;;2.85;;
63965;SDS011;50151;52.030;5.350;2023-03-31T20:26:12;7.00;;;2.50;;
63965;SDS011;50151;52.030;5.350;2023-03-31T20:28:41;6.40;;;2.75;;
63965;SDS011;50151;52.030;5.350;2023-03-31T20:31:15;6.10;;;2.80;;
63965;SDS011;50151;52.030;5.350;2023-03-31T20:33:44;7.60;;;2.90;;
63965;SDS011;50151;52.030;5.350;2023-03-31T20:36:12;7.68;;;2.92;;
63965;SDS011;50151;52.030;5.350;2023-03-31T20:38:44;11.73;;;3.13;;
63965;SDS011;50151;52.030;5.350;2023-03-31T20:41:12;10.43;;;2.78;;
63965;SDS011;50151;52.030;5.350;2023-03-31T20:43:39;11.40;;;3.40;;
63965;SDS011;50151;52.030;5.350;2023-03-31T20:46:07;6.53;;;2.30;;
63965;SDS011;50151;52.030;5.350;2023-03-31T20:51:06;7.65;;;2.70;;
63965;SDS011;50151;52.030;5.350;2023-03-31T20:53:34;6.28;;;2.50;;
63965;SDS011;50151;52.030;5.350;2023-03-31T20:56:07;8.77;;;2.80;;
63965;SDS011;50151;52.030;5.350;2023-03-31T20:58:35;6.35;;;3.10;;
63965;SDS011;50151;52.030;5.350;2023-03-31T21:01:03;8.18;;;2.70;;
63965;SDS011;50151;52.030;5.350;2023-03-31T21:03:31;8.52;;;2.65;;
63965;SDS011;50151;52.030;5.350;2023-03-31T21:06:03;8.38;;;2.38;;
63965;SDS011;50151;52.030;5.350;2023-03-31T21:08:36;8.02;;;2.55;;
63965;SDS011;50151;52.030;5.350;2023-03-31T21:11:03;4.50;;;2.00;;
63965;SDS011;50151;52.030;5.350;2023-03-31T21:13:30;7.10;;;2.35;;
63965;SDS011;50151;52.030;5.350;2023-03-31T21:15:58;10.18;;;2.53;;
63965;SDS011;50151;52.030;5.350;2023-03-31T21:18:26;10.68;;;2.58;;
63965;SDS011;50151;52.030;5.350;2023-03-31T21:20:55;5.88;;;2.20;;
63965;SDS011;50151;52.030;5.350;2023-03-31T21:23:27;6.15;;;2.25;;
63965;SDS011;50151;52.030;5.350;2023-03-31T21:25:55;6.80;;;2.38;;
63965;SDS011;50151;52.030;5.350;2023-03-31T21:28:25;5.03;;;2.15;;
63965;SDS011;50151;52.030;5.350;2023-03-31T21:30:54;6.13;;;2.50;;
63965;SDS011;50151;52.030;5.350;2023-03-31T21:33:25;7.50;;;2.35;;
63965;SDS011;50151;52.030;5.350;2023-03-31T21:35:53;5.90;;;2.22;;
63965;SDS011;50151;52.030;5.350;2023-03-31T21:38:21;4.95;;;2.25;;
63965;SDS011;50151;52.030;5.350;2023-03-31T21:40:49;5.47;;;2.17;;
63965;SDS011;50151;52.030;5.350;2023-03-31T21:43:18;5.80;;;2.42;;
63965;SDS011;50151;52.030;5.350;2023-03-31T21:45:44;7.03;;;2.40;;
63965;SDS011;50151;52.030;5.350;2023-03-31T21:48:12;6.35;;;2.47;;
63965;SDS011;50151;52.030;5.350;2023-03-31T21:50:39;4.53;;;2.10;;
63965;SDS011;50151;52.030;5.350;2023-03-31T21:53:07;7.03;;;2.38;;
63965;SDS011;50151;52.030;5.350;2023-03-31T21:55:35;4.70;;;1.85;;
63965;SDS011;50151;52.030;5.350;2023-03-31T21:58:03;5.00;;;2.28;;
63965;SDS011;50151;52.030;5.350;2023-03-31T22:00:30;8.32;;;2.28;;
63965;SDS011;50151;52.030;5.350;2023-03-31T22:02:57;8.18;;;2.22;;
63965;SDS011;50151;52.030;5.350;2023-03-31T22:05:44;6.13;;;2.40;;
63965;SDS011;50151;52.030;5.350;2023-03-31T22:08:11;7.00;;;2.33;;
63965;SDS011;50151;52.030;5.350;2023-03-31T22:10:38;3.95;;;2.20;;
63965;SDS011;50151;52.030;5.350;2023-03-31T22:13:05;6.65;;;2.20;;
63965;SDS011;50151;52.030;5.350;2023-03-31T22:15:31;7.20;;;2.38;;
63965;SDS011;50151;52.030;5.350;2023-03-31T22:17:58;7.28;;;2.47;;
63965;SDS011;50151;52.030;5.350;2023-03-31T22:20:26;4.90;;;2.33;;
63965;SDS011;50151;52.030;5.350;2023-03-31T22:22:53;4.25;;;2.17;;
63965;SDS011;50151;52.030;5.350;2023-03-31T22:25:20;6.32;;;2.10;;
63965;SDS011;50151;52.030;5.350;2023-03-31T22:27:47;3.83;;;2.20;;
63965;SDS011;50151;52.030;5.350;2023-03-31T22:30:13;5.47;;;1.92;;
63965;SDS011;50151;52.030;5.350;2023-03-31T22:32:40;3.53;;;1.60;;
63965;SDS011;50151;52.030;5.350;2023-03-31T22:35:07;4.13;;;1.90;;
63965;SDS011;50151;52.030;5.350;2023-03-31T22:37:34;4.75;;;2.17;;
63965;SDS011;50151;52.030;5.350;2023-03-31T22:40:01;3.33;;;1.10;;
63965;SDS011;50151;52.030;5.350;2023-03-31T22:42:28;5.00;;;2.13;;
63965;SDS011;50151;52.030;5.350;2023-03-31T22:44:54;4.65;;;1.80;;
63965;SDS011;50151;52.030;5.350;2023-03-31T22:47:21;4.85;;;2.13;;
63965;SDS011;50151;52.030;5.350;2023-03-31T22:49:48;3.13;;;1.70;;
63965;SDS011;50151;52.030;5.350;2023-03-31T22:52:15;4.05;;;1.77;;
63965;SDS011;50151;52.030;5.350;2023-03-31T22:54:41;4.45;;;2.00;;
63965;SDS011;50151;52.030;5.350;2023-03-31T22:57:08;3.20;;;1.58;;
63965;SDS011;50151;52.030;5.350;2023-03-31T22:59:35;4.65;;;1.73;;
63965;SDS011;50151;52.030;5.350;2023-03-31T23:02:02;3.35;;;1.90;;
63965;SDS011;50151;52.030;5.350;2023-03-31T23:04:29;6.97;;;1.63;;
63965;SDS011;50151;52.030;5.350;2023-03-31T23:06:56;3.05;;;1.60;;
63965;SDS011;50151;52.030;5.350;2023-03-31T23:09:23;3.85;;;1.48;;
63965;SDS011;50151;52.030;5.350;2023-03-31T23:11:50;1.70;;;1.10;;
63965;SDS011;50151;52.030;5.350;2023-03-31T23:14:17;5.57;;;1.88;;
63965;SDS011;50151;52.030;5.350;2023-03-31T23:16:43;2.88;;;1.80;;
63965;SDS011;50151;52.030;5.350;2023-03-31T23:19:10;4.72;;;1.75;;
63965;SDS011;50151;52.030;5.350;2023-03-31T23:21:37;3.97;;;1.90;;
63965;SDS011;50151;52.030;5.350;2023-03-31T23:24:04;3.88;;;1.90;;
63965;SDS011;50151;52.030;5.350;2023-03-31T23:26:31;5.03;;;2.15;;
63965;SDS011;50151;52.030;5.350;2023-03-31T23:28:59;5.25;;;2.10;;
63965;SDS011;50151;52.030;5.350;2023-03-31T23:31:27;4.47;;;2.13;;
63965;SDS011;50151;52.030;5.350;2023-03-31T23:33:56;7.88;;;2.75;;
63965;SDS011;50151;52.030;5.350;2023-03-31T23:36:24;4.53;;;1.75;;
63965;SDS011;50151;52.030;5.350;2023-03-31T23:38:52;5.32;;;2.15;;
63965;SDS011;50151;52.030;5.350;2023-03-31T23:41:21;3.42;;;2.50;;
63965;SDS011;50151;52.030;5.350;2023-03-31T23:43:49;4.63;;;2.53;;
63965;SDS011;50151;52.030;5.350;2023-03-31T23:46:16;10.68;;;3.40;;
63965;SDS011;50151;52.030;5.350;2023-03-31T23:48:43;7.00;;;2.33;;
63965;SDS011;50151;52.030;5.350;2023-03-31T23:51:10;9.43;;;3.55;;
63965;SDS011;50151;52.030;5.350;2023-03-31T23:53:38;15.93;;;3.72;;
63965;SDS011;50151;52.030;5.350;2023-03-31T23:56:06;7.10;;;2.28;;
63965;SDS011;50151;52.030;5.350;2023-03-31T23:58:35;9.93;;;3.40;;
